createdAt,value
2019-03-24T00:00:14.776Z,30.72
2019-03-24T00:02:43.264Z,29.92
2019-03-24T00:05:11.785Z,24.50
2019-03-24T00:07:40.271Z,25.60
2019-03-24T00:10:08.964Z,27.70
2019-03-24T00:12:37.463Z,29.72
2019-03-24T00:15:09.050Z,31.05
2019-03-24T00:17:37.535Z,28.47
2019-03-24T00:20:10.234Z,26.70
2019-03-24T00:22:38.917Z,24.37
2019-03-24T00:25:07.418Z,23.32
2019-03-24T00:27:35.909Z,27.30
2019-03-24T00:30:07.177Z,26.50
2019-03-24T00:32:35.669Z,23.30
2019-03-24T00:35:05.466Z,21.00
2019-03-24T00:37:33.967Z,23.98
2019-03-24T00:40:02.466Z,22.07
2019-03-24T00:42:30.950Z,23.45
2019-03-24T00:44:59.443Z,24.05
2019-03-24T00:47:27.921Z,22.73
2019-03-24T00:49:56.421Z,23.65
2019-03-24T00:52:24.911Z,21.30
2019-03-24T00:54:53.403Z,21.97
2019-03-24T00:57:21.892Z,20.90
2019-03-24T00:59:50.431Z,22.82
2019-03-24T01:02:17.830Z,23.10
2019-03-24T01:04:46.316Z,25.52
2019-03-24T01:07:14.804Z,24.67
2019-03-24T01:09:43.290Z,24.55
2019-03-24T01:12:11.781Z,24.47
2019-03-24T01:14:40.275Z,24.87
2019-03-24T01:17:08.767Z,25.40
2019-03-24T01:19:37.255Z,23.55
2019-03-24T01:22:05.747Z,25.23
2019-03-24T01:24:34.244Z,25.75
2019-03-24T01:27:02.733Z,24.67
2019-03-24T01:29:31.225Z,26.57
2019-03-24T01:31:59.769Z,24.77
2019-03-24T01:34:28.255Z,24.87
2019-03-24T01:36:56.738Z,22.55
2019-03-24T01:39:25.243Z,20.82
2019-03-24T01:41:53.727Z,20.30
2019-03-24T01:44:22.220Z,20.88
2019-03-24T01:46:50.700Z,22.85
2019-03-24T01:49:19.193Z,25.17
2019-03-24T01:51:47.676Z,23.95
2019-03-24T01:54:16.171Z,23.90
2019-03-24T01:56:44.659Z,25.05
2019-03-24T01:59:13.154Z,21.97
2019-03-24T02:01:41.650Z,25.75
2019-03-24T02:04:10.147Z,22.93
2019-03-24T02:06:38.783Z,29.67
2019-03-24T02:09:08.273Z,22.93
2019-03-24T02:11:36.758Z,24.47
2019-03-24T02:14:05.246Z,21.62
2019-03-24T02:16:33.737Z,24.95
2019-03-24T02:19:02.227Z,26.57
2019-03-24T02:21:31.416Z,23.12
2019-03-24T02:23:59.904Z,24.45
2019-03-24T02:26:28.395Z,27.17
2019-03-24T02:28:56.879Z,24.10
2019-03-24T02:31:25.369Z,25.65
2019-03-24T02:33:53.866Z,23.85
2019-03-24T02:36:22.351Z,25.80
2019-03-24T02:38:50.849Z,26.50
2019-03-24T02:41:19.438Z,30.57
2019-03-24T02:43:47.928Z,26.15
2019-03-24T02:46:24.323Z,24.82
2019-03-24T02:48:46.618Z,23.75
2019-03-24T02:51:15.108Z,23.80
2019-03-24T02:53:43.597Z,28.25
2019-03-24T02:56:12.093Z,25.12
2019-03-24T02:58:40.585Z,28.23
2019-03-24T03:01:09.081Z,30.30
2019-03-24T03:03:37.557Z,28.45
2019-03-24T03:06:06.060Z,31.30
2019-03-24T03:08:34.544Z,29.60
2019-03-24T03:11:03.033Z,37.85
2019-03-24T03:13:31.510Z,33.95
2019-03-24T03:16:00.009Z,36.73
2019-03-24T03:18:28.488Z,34.78
2019-03-24T03:20:56.987Z,32.55
2019-03-24T03:23:26.505Z,33.88
2019-03-24T03:25:54.991Z,33.78
2019-03-24T03:28:23.479Z,32.75
2019-03-24T03:30:52.017Z,32.40
2019-03-24T03:33:20.521Z,33.88
2019-03-24T03:35:49.003Z,32.13
2019-03-24T03:38:17.486Z,33.67
2019-03-24T03:40:45.981Z,30.10
2019-03-24T03:43:14.466Z,30.70
2019-03-24T03:45:42.967Z,31.33
2019-03-24T03:48:11.448Z,41.60
2019-03-24T03:50:39.935Z,43.10
2019-03-24T03:53:08.426Z,42.33
2019-03-24T03:55:36.906Z,42.50
2019-03-24T03:58:05.392Z,54.53
2019-03-24T04:00:35.188Z,52.10
2019-03-24T04:03:03.678Z,45.70
2019-03-24T04:05:32.325Z,45.38
2019-03-24T04:08:01.419Z,38.63
2019-03-24T04:10:29.899Z,40.45
2019-03-24T04:12:58.401Z,43.87
2019-03-24T04:15:26.952Z,35.88
2019-03-24T04:17:55.450Z,30.08
2019-03-24T04:20:23.945Z,29.10
2019-03-24T04:22:52.428Z,57.15
2019-03-24T04:25:20.921Z,81.40
2019-03-24T04:27:49.471Z,83.95
2019-03-24T04:30:17.958Z,59.67
2019-03-24T04:32:46.477Z,47.60
2019-03-24T04:35:14.948Z,46.42
2019-03-24T04:37:43.439Z,33.83
2019-03-24T04:40:11.921Z,31.23
2019-03-24T04:42:40.458Z,32.38
2019-03-24T04:45:08.954Z,37.25
2019-03-24T04:47:37.441Z,37.08
2019-03-24T04:50:08.674Z,31.87
2019-03-24T04:52:37.166Z,38.00
2019-03-24T04:55:06.663Z,53.83
2019-03-24T04:57:35.147Z,55.83
2019-03-24T05:00:08.715Z,57.43
2019-03-24T05:02:37.205Z,53.35
2019-03-24T05:05:06.905Z,47.90
2019-03-24T05:07:35.387Z,39.95
2019-03-24T05:10:05.184Z,33.08
2019-03-24T05:12:33.667Z,28.50
2019-03-24T05:15:02.159Z,26.80
2019-03-24T05:17:30.648Z,30.40
2019-03-24T05:19:59.187Z,31.57
2019-03-24T05:22:27.664Z,34.92
2019-03-24T05:24:56.153Z,31.90
2019-03-24T05:27:24.649Z,32.17
2019-03-24T05:29:53.133Z,27.15
2019-03-24T05:32:21.626Z,29.98
2019-03-24T05:34:50.112Z,28.98
2019-03-24T05:37:18.601Z,29.00
2019-03-24T05:39:47.086Z,25.70
2019-03-24T05:42:15.573Z,22.02
2019-03-24T05:44:44.061Z,26.05
2019-03-24T05:47:12.576Z,24.45
2019-03-24T05:49:41.058Z,24.32
2019-03-24T05:52:09.560Z,25.62
2019-03-24T05:54:38.057Z,27.85
2019-03-24T05:57:06.555Z,30.00
2019-03-24T05:59:35.044Z,28.23
2019-03-24T06:02:03.544Z,32.80
2019-03-24T06:04:32.152Z,63.98
2019-03-24T06:07:00.675Z,71.17
2019-03-24T06:09:29.172Z,37.50
2019-03-24T06:11:57.665Z,30.00
2019-03-24T06:14:26.163Z,35.33
2019-03-24T06:16:54.655Z,83.62
2019-03-24T06:19:23.150Z,66.00
2019-03-24T06:21:51.644Z,133.93
2019-03-24T06:24:20.157Z,39.67
2019-03-24T06:26:48.638Z,37.08
2019-03-24T06:29:17.156Z,23.83
2019-03-24T06:31:45.639Z,37.90
2019-03-24T06:34:14.142Z,26.42
2019-03-24T06:36:42.634Z,23.05
2019-03-24T06:39:11.141Z,26.50
2019-03-24T06:41:39.617Z,23.02
2019-03-24T06:44:08.122Z,25.77
2019-03-24T06:46:36.610Z,22.37
2019-03-24T06:49:05.115Z,29.50
2019-03-24T06:51:33.603Z,28.25
2019-03-24T06:54:02.105Z,25.85
2019-03-24T06:56:30.602Z,26.40
2019-03-24T06:58:59.091Z,23.52
2019-03-24T07:01:27.580Z,25.92
2019-03-24T07:03:56.067Z,24.72
2019-03-24T07:06:24.583Z,22.75
2019-03-24T07:08:53.053Z,27.13
2019-03-24T07:11:21.550Z,26.70
2019-03-24T07:13:50.048Z,31.48
2019-03-24T07:16:18.672Z,27.67
2019-03-24T07:18:47.150Z,27.70
2019-03-24T07:21:15.643Z,32.67
2019-03-24T07:23:44.135Z,25.32
2019-03-24T07:26:12.633Z,25.37
2019-03-24T07:28:41.117Z,24.75
2019-03-24T07:31:09.616Z,25.52
2019-03-24T07:33:38.102Z,30.52
2019-03-24T07:36:06.623Z,26.70
2019-03-24T07:38:35.121Z,25.25
2019-03-24T07:41:03.611Z,26.65
2019-03-24T07:43:32.099Z,29.05
2019-03-24T07:46:00.591Z,25.37
2019-03-24T07:48:29.088Z,34.35
2019-03-24T07:50:57.585Z,30.45
2019-03-24T07:53:26.086Z,29.80
2019-03-24T07:55:54.639Z,25.88
2019-03-24T07:58:23.139Z,26.15
2019-03-24T08:00:51.632Z,25.68
2019-03-24T08:03:20.127Z,27.00
2019-03-24T08:05:48.617Z,32.45
2019-03-24T08:08:17.105Z,30.92
2019-03-24T08:10:45.610Z,31.55
2019-03-24T08:13:14.095Z,31.57
2019-03-24T08:15:42.594Z,27.77
2019-03-24T08:18:11.085Z,26.82
2019-03-24T08:20:39.598Z,25.62
2019-03-24T08:23:08.102Z,22.40
2019-03-24T08:25:36.597Z,25.72
2019-03-24T08:28:06.453Z,30.82
2019-03-24T08:30:41.977Z,29.90
2019-03-24T08:33:10.445Z,30.02
2019-03-24T08:35:38.941Z,27.10
2019-03-24T08:38:07.444Z,26.23
2019-03-24T08:40:35.932Z,34.85
2019-03-24T08:43:04.435Z,25.88
2019-03-24T08:45:32.928Z,27.25
2019-03-24T08:48:01.428Z,33.02
2019-03-24T08:50:29.925Z,28.95
2019-03-24T08:52:58.422Z,33.75
2019-03-24T08:55:26.910Z,28.57
2019-03-24T08:57:55.413Z,36.68
2019-03-24T09:00:30.461Z,24.60
2019-03-24T09:02:54.118Z,25.62
2019-03-24T09:05:22.616Z,20.48
2019-03-24T09:07:51.112Z,24.90
2019-03-24T09:10:19.598Z,31.68
2019-03-24T09:12:48.167Z,28.42
2019-03-24T09:15:16.655Z,27.42
2019-03-24T09:17:45.257Z,21.35
2019-03-24T09:20:13.724Z,26.75
2019-03-24T09:22:42.222Z,23.95
2019-03-24T09:25:10.706Z,26.62
2019-03-24T09:27:39.879Z,20.55
2019-03-24T09:30:11.487Z,23.70
2019-03-24T09:32:39.983Z,23.30
2019-03-24T09:35:08.520Z,25.05
2019-03-24T09:37:37.025Z,22.13
2019-03-24T09:40:07.118Z,21.15
2019-03-24T09:42:35.614Z,18.90
2019-03-24T09:45:05.219Z,19.00
2019-03-24T09:47:33.726Z,19.55
2019-03-24T09:50:02.231Z,23.75
2019-03-24T09:52:30.716Z,25.15
2019-03-24T09:54:59.222Z,31.35
2019-03-24T09:57:27.711Z,20.85
2019-03-24T09:59:56.203Z,21.45
2019-03-24T10:02:24.700Z,23.32
2019-03-24T10:04:54.955Z,20.35
2019-03-24T10:07:23.567Z,16.77
2019-03-24T10:09:52.063Z,21.90
2019-03-24T10:12:20.560Z,22.50
2019-03-24T10:14:49.053Z,20.02
2019-03-24T10:17:17.552Z,18.77
2019-03-24T10:19:46.039Z,31.42
2019-03-24T10:22:14.545Z,24.45
2019-03-24T10:24:43.032Z,19.10
2019-03-24T10:27:11.521Z,21.05
2019-03-24T10:29:40.039Z,17.27
2019-03-24T10:32:08.571Z,15.45
2019-03-24T10:34:37.078Z,22.52
2019-03-24T10:37:05.586Z,17.02
2019-03-24T10:39:34.125Z,19.75
2019-03-24T10:42:02.831Z,18.32
2019-03-24T10:44:31.332Z,17.85
2019-03-24T10:46:59.825Z,21.05
2019-03-24T10:49:28.322Z,18.42
2019-03-24T10:51:56.813Z,20.40
2019-03-24T10:54:25.320Z,19.92
2019-03-24T10:56:53.807Z,17.77
2019-03-24T10:59:22.332Z,20.48
2019-03-24T11:01:50.825Z,24.95
2019-03-24T11:04:21.766Z,29.48
2019-03-24T11:06:50.270Z,19.12
2019-03-24T11:09:18.766Z,27.62
2019-03-24T11:11:47.263Z,22.77
2019-03-24T11:14:15.758Z,29.52
2019-03-24T11:16:44.263Z,17.95
2019-03-24T11:19:12.744Z,22.22
2019-03-24T11:21:41.251Z,20.82
2019-03-24T11:24:09.745Z,16.35
2019-03-24T11:26:38.676Z,21.57
2019-03-24T11:29:07.168Z,17.30
2019-03-24T11:31:39.395Z,17.42
2019-03-24T11:34:07.883Z,61.83
2019-03-24T11:36:36.378Z,16.93
2019-03-24T11:39:06.569Z,17.73
2019-03-24T11:41:35.141Z,19.07
2019-03-24T11:44:08.056Z,19.92
2019-03-24T11:46:36.553Z,23.95
2019-03-24T11:49:05.044Z,17.87
2019-03-24T11:51:33.539Z,14.80
2019-03-24T11:54:02.040Z,14.13
2019-03-24T11:56:30.540Z,31.12
2019-03-24T11:58:59.145Z,18.85
2019-03-24T12:01:37.777Z,17.00
2019-03-24T12:03:57.955Z,15.88
2019-03-24T12:06:26.455Z,21.57
2019-03-24T12:08:54.942Z,22.37
2019-03-24T12:11:23.434Z,14.83
2019-03-24T12:13:51.928Z,24.80
2019-03-24T12:16:20.424Z,28.05
2019-03-24T12:18:48.917Z,23.75
2019-03-24T12:21:17.424Z,24.18
2019-03-24T12:23:45.928Z,24.77
2019-03-24T12:26:14.417Z,15.65
2019-03-24T12:28:42.951Z,15.93
2019-03-24T12:31:11.451Z,15.05
2019-03-24T12:33:39.945Z,24.18
2019-03-24T12:36:08.464Z,17.25
2019-03-24T12:38:36.943Z,16.07
2019-03-24T12:41:05.647Z,14.68
2019-03-24T12:43:34.139Z,14.85
2019-03-24T12:46:02.660Z,17.60
2019-03-24T12:48:31.265Z,21.52
2019-03-24T12:50:59.765Z,16.93
2019-03-24T12:53:28.259Z,21.73
2019-03-24T12:55:56.751Z,15.93
2019-03-24T12:58:25.239Z,28.17
2019-03-24T13:00:53.734Z,16.62
2019-03-24T13:03:22.223Z,16.97
2019-03-24T13:05:50.735Z,17.40
2019-03-24T13:08:19.310Z,23.67
2019-03-24T13:10:47.799Z,18.35
2019-03-24T13:13:16.290Z,15.28
2019-03-24T13:15:44.796Z,17.35
2019-03-24T13:18:13.266Z,15.15
2019-03-24T13:20:41.764Z,21.10
2019-03-24T13:23:10.273Z,15.10
2019-03-24T13:25:38.750Z,24.12
2019-03-24T13:28:07.253Z,13.78
2019-03-24T13:30:35.739Z,18.95
2019-03-24T13:33:04.240Z,14.05
2019-03-24T13:35:32.746Z,13.35
2019-03-24T13:38:01.269Z,18.70
2019-03-24T13:40:29.764Z,18.73
2019-03-24T13:43:01.127Z,16.87
2019-03-24T13:45:29.624Z,12.88
2019-03-24T13:47:58.114Z,14.50
2019-03-24T13:50:31.381Z,18.17
2019-03-24T13:52:58.181Z,16.27
2019-03-24T13:55:26.790Z,14.78
2019-03-24T13:57:55.285Z,21.57
2019-03-24T14:00:23.792Z,19.00
2019-03-24T14:02:52.261Z,15.95
2019-03-24T14:05:20.794Z,13.75
2019-03-24T14:07:49.278Z,18.30
2019-03-24T14:10:17.784Z,26.10
2019-03-24T14:12:46.271Z,24.27
2019-03-24T14:15:14.763Z,19.92
2019-03-24T14:17:43.270Z,14.93
2019-03-24T14:20:11.752Z,14.15
2019-03-24T14:22:40.242Z,31.80
2019-03-24T14:25:08.936Z,13.35
2019-03-24T14:27:37.431Z,17.00
2019-03-24T14:30:07.322Z,25.85
2019-03-24T14:32:35.823Z,19.92
2019-03-24T14:35:05.713Z,17.02
2019-03-24T14:37:34.212Z,15.72
2019-03-24T14:40:03.029Z,18.80
2019-03-24T14:42:31.531Z,15.10
2019-03-24T14:45:00.011Z,17.70
2019-03-24T14:47:28.505Z,19.07
2019-03-24T14:49:56.988Z,21.68
2019-03-24T14:52:25.479Z,15.63
2019-03-24T14:54:53.964Z,15.80
2019-03-24T14:57:22.471Z,19.65
2019-03-24T14:59:50.954Z,17.73
2019-03-24T15:02:19.446Z,29.50
2019-03-24T15:04:47.943Z,31.52
2019-03-24T15:07:16.440Z,38.78
2019-03-24T15:09:44.953Z,54.00
2019-03-24T15:12:13.458Z,88.10
2019-03-24T15:14:41.944Z,25.80
2019-03-24T15:17:10.448Z,43.40
2019-03-24T15:19:38.939Z,30.10
2019-03-24T15:22:07.479Z,45.95
2019-03-24T15:24:35.982Z,18.70
2019-03-24T15:27:04.472Z,19.35
2019-03-24T15:29:32.968Z,21.57
2019-03-24T15:32:01.459Z,60.92
2019-03-24T15:34:29.962Z,46.13
2019-03-24T15:36:58.461Z,31.20
2019-03-24T15:39:26.944Z,34.53
2019-03-24T15:41:55.446Z,145.62
2019-03-24T15:44:23.953Z,80.40
2019-03-24T15:46:52.448Z,54.35
2019-03-24T15:49:20.951Z,50.75
2019-03-24T15:51:49.440Z,40.25
2019-03-24T15:54:17.979Z,28.17
2019-03-24T15:56:46.469Z,30.02
2019-03-24T15:59:14.954Z,32.48
2019-03-24T16:01:43.467Z,40.17
2019-03-24T16:04:11.966Z,39.42
2019-03-24T16:06:40.468Z,34.03
2019-03-24T16:09:09.064Z,32.73
2019-03-24T16:11:37.555Z,35.25
2019-03-24T16:14:06.054Z,32.10
2019-03-24T16:16:34.554Z,71.65
2019-03-24T16:19:03.050Z,42.67
2019-03-24T16:21:31.601Z,34.60
2019-03-24T16:24:00.072Z,35.63
2019-03-24T16:26:28.624Z,39.25
2019-03-24T16:28:57.198Z,39.15
2019-03-24T16:31:25.687Z,39.45
2019-03-24T16:33:54.194Z,30.32
2019-03-24T16:36:22.685Z,30.27
2019-03-24T16:38:51.182Z,32.40
2019-03-24T16:41:19.673Z,41.30
2019-03-24T16:43:48.170Z,26.07
2019-03-24T16:46:16.654Z,28.35
2019-03-24T16:48:45.173Z,21.75
2019-03-24T16:51:13.662Z,22.40
2019-03-24T16:53:42.166Z,44.30
2019-03-24T16:56:10.659Z,25.32
2019-03-24T16:58:39.165Z,34.65
2019-03-24T17:01:07.652Z,43.80
2019-03-24T17:03:36.154Z,36.55
2019-03-24T17:06:04.654Z,40.15
2019-03-24T17:08:33.148Z,44.13
2019-03-24T17:11:01.643Z,39.67
2019-03-24T17:13:30.136Z,65.70
2019-03-24T17:15:58.633Z,72.92
2019-03-24T17:18:27.120Z,54.20
2019-03-24T17:20:55.615Z,39.03
2019-03-24T17:23:24.108Z,38.60
2019-03-24T17:25:52.607Z,36.38
2019-03-24T17:28:21.102Z,50.78
2019-03-24T17:30:49.594Z,36.17
2019-03-24T17:33:18.084Z,37.70
2019-03-24T17:35:46.585Z,41.05
2019-03-24T17:38:15.076Z,25.90
2019-03-24T17:40:45.704Z,23.32
2019-03-24T17:43:14.671Z,42.62
2019-03-24T17:45:43.175Z,17.67
2019-03-24T17:48:11.679Z,39.33
2019-03-24T17:50:40.174Z,43.20
2019-03-24T17:53:08.658Z,46.75
2019-03-24T17:55:37.427Z,25.30
2019-03-24T17:58:05.920Z,47.05
2019-03-24T18:00:42.792Z,36.08
2019-03-24T18:03:11.305Z,24.35
2019-03-24T18:05:39.822Z,34.33
2019-03-24T18:08:08.306Z,28.02
2019-03-24T18:10:36.799Z,23.47
2019-03-24T18:13:05.304Z,32.73
2019-03-24T18:15:33.915Z,23.57
2019-03-24T18:18:02.526Z,32.60
2019-03-24T18:20:35.236Z,31.90
2019-03-24T18:23:03.760Z,28.45
2019-03-24T18:25:32.239Z,26.20
2019-03-24T18:28:00.738Z,30.20
2019-03-24T18:30:29.240Z,27.32
2019-03-24T18:32:57.735Z,29.82
2019-03-24T18:35:26.229Z,21.73
2019-03-24T18:37:54.738Z,13.08
2019-03-24T18:40:23.223Z,20.12
2019-03-24T18:42:51.723Z,30.75
2019-03-24T18:45:20.471Z,25.65
2019-03-24T18:47:48.977Z,35.43
2019-03-24T18:50:17.473Z,36.33
2019-03-24T18:52:45.974Z,45.75
2019-03-24T18:55:14.483Z,27.22
2019-03-24T18:57:43.059Z,36.05
2019-03-24T19:00:12.997Z,46.35
2019-03-24T19:02:41.499Z,49.08
2019-03-24T19:05:10.002Z,57.08
2019-03-24T19:07:38.496Z,26.45
2019-03-24T19:10:08.284Z,73.22
2019-03-24T19:12:37.316Z,75.57
2019-03-24T19:15:10.324Z,99.62
2019-03-24T19:17:38.831Z,67.27
2019-03-24T19:20:08.129Z,46.18
2019-03-24T19:22:36.756Z,38.10
2019-03-24T19:25:09.249Z,48.23
2019-03-24T19:27:37.812Z,50.65
2019-03-24T19:30:17.417Z,67.80
2019-03-24T19:32:46.221Z,73.95
2019-03-24T19:35:14.707Z,76.70
2019-03-24T19:37:43.205Z,58.73
2019-03-24T19:40:31.971Z,46.90
2019-03-24T19:43:00.725Z,38.70
2019-03-24T19:45:29.180Z,39.05
2019-03-24T19:47:57.688Z,21.15
2019-03-24T19:50:26.176Z,17.05
2019-03-24T19:52:54.684Z,17.62
2019-03-24T19:55:23.171Z,19.02
2019-03-24T19:57:51.690Z,16.90
2019-03-24T20:00:20.173Z,17.40
2019-03-24T20:02:48.709Z,15.68
2019-03-24T20:05:17.266Z,14.78
2019-03-24T20:07:48.242Z,18.35
2019-03-24T20:10:15.997Z,15.35
2019-03-24T20:12:44.499Z,22.80
2019-03-24T20:15:13.030Z,23.87
2019-03-24T20:17:41.517Z,24.92
2019-03-24T20:20:10.023Z,15.72
2019-03-24T20:22:38.524Z,17.37
2019-03-24T20:25:07.628Z,30.97
2019-03-24T20:27:36.121Z,34.25
2019-03-24T20:30:07.897Z,31.02
2019-03-24T20:32:36.395Z,21.37
2019-03-24T20:35:06.288Z,31.42
2019-03-24T20:37:35.128Z,21.90
2019-03-24T20:40:04.655Z,20.82
2019-03-24T20:42:33.143Z,19.35
2019-03-24T20:45:01.640Z,15.68
2019-03-24T20:47:30.125Z,12.78
2019-03-24T20:49:58.621Z,13.83
2019-03-24T20:52:27.111Z,18.37
2019-03-24T20:54:55.602Z,16.27
2019-03-24T20:57:24.098Z,21.90
2019-03-24T20:59:52.599Z,28.02
2019-03-24T21:02:21.102Z,25.77
2019-03-24T21:04:49.639Z,24.47
2019-03-24T21:07:18.162Z,21.75
2019-03-24T21:09:46.698Z,18.30
2019-03-24T21:12:15.151Z,16.77
2019-03-24T21:14:43.651Z,19.45
2019-03-24T21:17:12.150Z,23.92
2019-03-24T21:19:40.642Z,33.80
2019-03-24T21:22:09.140Z,43.55
2019-03-24T21:24:37.636Z,46.58
2019-03-24T21:27:07.267Z,32.30
2019-03-24T21:29:36.011Z,27.10
2019-03-24T21:32:04.516Z,26.85
2019-03-24T21:34:33.015Z,22.87
2019-03-24T21:37:01.523Z,21.12
2019-03-24T21:39:30.040Z,17.80
2019-03-24T21:41:58.535Z,21.12
2019-03-24T21:44:27.025Z,18.30
2019-03-24T21:46:55.524Z,20.97
2019-03-24T21:49:24.010Z,23.07
2019-03-24T21:51:52.511Z,28.30
2019-03-24T21:54:21.003Z,20.08
2019-03-24T21:56:49.511Z,24.32
2019-03-24T21:59:18.001Z,20.92
2019-03-24T22:01:46.534Z,16.15
2019-03-24T22:04:15.025Z,15.88
2019-03-24T22:06:43.513Z,18.17
2019-03-24T22:09:12.003Z,59.55
2019-03-24T22:11:40.501Z,61.50
2019-03-24T22:14:08.991Z,52.95
2019-03-24T22:16:37.485Z,30.10
2019-03-24T22:19:06.032Z,13.88
2019-03-24T22:21:34.513Z,13.50
2019-03-24T22:24:03.008Z,11.45
2019-03-24T22:26:31.502Z,13.58
2019-03-24T22:29:00.026Z,13.10
2019-03-24T22:31:28.560Z,10.68
2019-03-24T22:33:57.134Z,12.43
2019-03-24T22:36:25.617Z,14.15
2019-03-24T22:38:54.097Z,12.95
2019-03-24T22:41:22.596Z,12.13
2019-03-24T22:43:51.085Z,11.95
2019-03-24T22:46:19.577Z,13.50
2019-03-24T22:48:48.125Z,14.28
2019-03-24T22:51:16.566Z,11.63
2019-03-24T22:53:45.057Z,14.83
2019-03-24T22:56:13.558Z,15.05
2019-03-24T22:58:42.040Z,16.52
2019-03-24T23:01:10.669Z,18.12
2019-03-24T23:03:39.213Z,19.48
2019-03-24T23:06:07.707Z,19.42
2019-03-24T23:08:36.190Z,14.83
2019-03-24T23:11:04.682Z,15.65
2019-03-24T23:13:33.168Z,15.38
2019-03-24T23:16:01.658Z,10.90
2019-03-24T23:18:30.146Z,10.60
2019-03-24T23:20:58.642Z,10.95
2019-03-24T23:23:27.135Z,12.85
2019-03-24T23:25:55.627Z,11.93
2019-03-24T23:28:24.118Z,12.10
2019-03-24T23:30:52.613Z,9.95
2019-03-24T23:33:21.112Z,13.83
2019-03-24T23:35:49.606Z,14.87
2019-03-24T23:38:18.092Z,14.10
2019-03-24T23:40:46.593Z,16.10
2019-03-24T23:43:15.080Z,11.80
2019-03-24T23:45:43.576Z,13.62
2019-03-24T23:48:12.060Z,14.23
2019-03-24T23:50:40.562Z,14.35
2019-03-24T23:53:09.047Z,15.98
2019-03-24T23:55:37.538Z,17.65
2019-03-24T23:58:06.034Z,19.40
